sensor_id;sensor_type;location;lat;lon;timestamp;pressure;altitude;pressure_sealevel;temperature;humidity
41632;BME280;37452;51.938;4.624;2022-10-20T00:00:17;77733.84;;;-142.75;100.00
41632;BME280;37452;51.938;4.624;2022-10-20T00:02:43;77737.78;;;-142.75;100.00
41632;BME280;37452;51.938;4.624;2022-10-20T00:05:08;77739.75;;;-142.75;100.00
41632;BME280;37452;51.938;4.624;2022-10-20T00:07:33;77743.69;;;-142.75;100.00
41632;BME280;37452;51.938;4.624;2022-10-20T00:09:58;77725.97;;;-142.75;100.00
41632;BME280;37452;51.938;4.624;2022-10-20T00:12:23;77716.09;;;-142.75;100.00
41632;BME280;37452;51.938;4.624;2022-10-20T00:14:49;77706.25;;;-142.75;100.00
41632;BME280;37452;51.938;4.624;2022-10-20T00:17:14;77712.16;;;-142.75;100.00
41632;BME280;37452;51.938;4.624;2022-10-20T00:19:39;77700.34;;;-142.75;100.00
41632;BME280;37452;51.938;4.624;2022-10-20T00:22:04;77700.34;;;-142.75;100.00
41632;BME280;37452;51.938;4.624;2022-10-20T00:24:29;77706.25;;;-142.75;100.00
41632;BME280;37452;51.938;4.624;2022-10-20T00:26:55;77710.19;;;-142.75;100.00
41632;BME280;37452;51.938;4.624;2022-10-20T00:29:20;77696.41;;;-142.75;100.00
41632;BME280;37452;51.938;4.624;2022-10-20T00:31:45;77704.28;;;-142.75;100.00
41632;BME280;37452;51.938;4.624;2022-10-20T00:34:10;77702.31;;;-142.75;100.00
41632;BME280;37452;51.938;4.624;2022-10-20T00:36:35;77696.41;;;-142.75;100.00
41632;BME280;37452;51.938;4.624;2022-10-20T00:39:02;77706.25;;;-142.75;100.00
41632;BME280;37452;51.938;4.624;2022-10-20T00:41:28;77696.41;;;-142.75;100.00
41632;BME280;37452;51.938;4.624;2022-10-20T00:43:55;77684.59;;;-142.75;100.00
41632;BME280;37452;51.938;4.624;2022-10-20T00:46:37;77680.66;;;-142.75;100.00
41632;BME280;37452;51.938;4.624;2022-10-20T00:49:22;77692.47;;;-142.75;100.00
41632;BME280;37452;51.938;4.624;2022-10-20T00:51:49;77672.78;;;-142.75;100.00
41632;BME280;37452;51.938;4.624;2022-10-20T00:54:16;77678.69;;;-142.75;100.00
41632;BME280;37452;51.938;4.624;2022-10-20T00:56:42;77672.78;;;-142.75;100.00
41632;BME280;37452;51.938;4.624;2022-10-20T00:59:08;77688.53;;;-142.75;100.00
41632;BME280;37452;51.938;4.624;2022-10-20T01:01:33;77678.69;;;-142.75;100.00
41632;BME280;37452;51.938;4.624;2022-10-20T01:03:58;77672.78;;;-142.75;100.00
41632;BME280;37452;51.938;4.624;2022-10-20T01:06:24;77676.72;;;-142.75;100.00
41632;BME280;37452;51.938;4.624;2022-10-20T01:08:50;77682.63;;;-142.75;100.00
41632;BME280;37452;51.938;4.624;2022-10-20T01:11:28;77662.94;;;-142.75;100.00
41632;BME280;37452;51.938;4.624;2022-10-20T01:18:55;77659.00;;;-142.75;100.00
41632;BME280;37452;51.938;4.624;2022-10-20T01:21:37;77645.22;;;-142.75;100.00
41632;BME280;37452;51.938;4.624;2022-10-20T01:34:02;77649.16;;;-142.75;100.00
41632;BME280;37452;51.938;4.624;2022-10-20T01:36:41;77653.09;;;-142.75;100.00
41632;BME280;37452;51.938;4.624;2022-10-20T01:39:15;77651.13;;;-142.75;100.00
41632;BME280;37452;51.938;4.624;2022-10-20T01:41:42;77649.16;;;-142.75;100.00
41632;BME280;37452;51.938;4.624;2022-10-20T01:44:11;77641.28;;;-142.75;100.00
41632;BME280;37452;51.938;4.624;2022-10-20T01:46:38;77635.38;;;-142.75;100.00
41632;BME280;37452;51.938;4.624;2022-10-20T01:49:05;77627.50;;;-142.75;100.00
41632;BME280;37452;51.938;4.624;2022-10-20T01:51:31;77619.63;;;-142.75;100.00
41632;BME280;37452;51.938;4.624;2022-10-20T01:53:56;77623.56;;;-142.75;100.00
41632;BME280;37452;51.938;4.624;2022-10-20T01:59:15;77627.50;;;-142.75;100.00
41632;BME280;37452;51.938;4.624;2022-10-20T02:01:48;77625.53;;;-142.75;100.00
41632;BME280;37452;51.938;4.624;2022-10-20T02:04:20;77631.44;;;-142.75;100.00
41632;BME280;37452;51.938;4.624;2022-10-20T02:09:17;77619.63;;;-142.75;100.00
41632;BME280;37452;51.938;4.624;2022-10-20T02:14:17;77613.72;;;-142.75;100.00
41632;BME280;37452;51.938;4.624;2022-10-20T02:16:45;77617.66;;;-142.75;100.00
41632;BME280;37452;51.938;4.624;2022-10-20T02:19:12;77615.69;;;-142.75;100.00
41632;BME280;37452;51.938;4.624;2022-10-20T02:21:38;77613.72;;;-142.75;100.00
41632;BME280;37452;51.938;4.624;2022-10-20T02:24:04;77596.00;;;-142.75;100.00
41632;BME280;37452;51.938;4.624;2022-10-20T02:26:30;77594.03;;;-142.75;100.00
41632;BME280;37452;51.938;4.624;2022-10-20T02:28:58;77590.09;;;-142.75;100.00
41632;BME280;37452;51.938;4.624;2022-10-20T02:31:24;77566.47;;;-142.75;100.00
41632;BME280;37452;51.938;4.624;2022-10-20T02:33:50;77576.31;;;-142.75;100.00
41632;BME280;37452;51.938;4.624;2022-10-20T02:36:17;77582.22;;;-142.75;100.00
41632;BME280;37452;51.938;4.624;2022-10-20T02:38:43;77580.25;;;-142.75;100.00
41632;BME280;37452;51.938;4.624;2022-10-20T02:41:09;77574.34;;;-142.75;100.00
41632;BME280;37452;51.938;4.624;2022-10-20T02:43:34;77562.53;;;-142.75;100.00
41632;BME280;37452;51.938;4.624;2022-10-20T02:45:59;77564.50;;;-142.75;100.00
41632;BME280;37452;51.938;4.624;2022-10-20T02:48:24;77560.56;;;-142.75;100.00
41632;BME280;37452;51.938;4.624;2022-10-20T02:50:49;77566.47;;;-142.75;100.00
41632;BME280;37452;51.938;4.624;2022-10-20T02:53:15;77558.59;;;-142.75;100.00
41632;BME280;37452;51.938;4.624;2022-10-20T02:55:40;77548.75;;;-142.75;100.00
41632;BME280;37452;51.938;4.624;2022-10-20T02:58:06;77552.69;;;-142.75;100.00
41632;BME280;37452;51.938;4.624;2022-10-20T03:00:31;77554.66;;;-142.75;100.00
41632;BME280;37452;51.938;4.624;2022-10-20T03:02:56;77538.91;;;-142.75;100.00
41632;BME280;37452;51.938;4.624;2022-10-20T03:05:22;77534.97;;;-142.75;100.00
41632;BME280;37452;51.938;4.624;2022-10-20T03:07:47;77546.78;;;-142.75;100.00
41632;BME280;37452;51.938;4.624;2022-10-20T03:10:12;77536.94;;;-142.75;100.00
41632;BME280;37452;51.938;4.624;2022-10-20T03:12:37;77527.09;;;-142.75;100.00
41632;BME280;37452;51.938;4.624;2022-10-20T03:15:03;77521.19;;;-142.75;100.00
41632;BME280;37452;51.938;4.624;2022-10-20T03:17:28;77509.38;;;-142.75;100.00
41632;BME280;37452;51.938;4.624;2022-10-20T03:19:53;77523.16;;;-142.75;100.00
41632;BME280;37452;51.938;4.624;2022-10-20T03:22:19;77513.31;;;-142.75;100.00
41632;BME280;37452;51.938;4.624;2022-10-20T03:24:44;77501.50;;;-142.75;100.00
41632;BME280;37452;51.938;4.624;2022-10-20T03:27:09;77499.53;;;-142.75;100.00
41632;BME280;37452;51.938;4.624;2022-10-20T03:29:34;77499.53;;;-142.75;100.00
41632;BME280;37452;51.938;4.624;2022-10-20T03:32:00;77497.56;;;-142.75;100.00
41632;BME280;37452;51.938;4.624;2022-10-20T03:34:25;77511.34;;;-142.75;100.00
41632;BME280;37452;51.938;4.624;2022-10-20T03:36:50;77503.47;;;-142.75;100.00
41632;BME280;37452;51.938;4.624;2022-10-20T03:39:15;77495.59;;;-142.75;100.00
41632;BME280;37452;51.938;4.624;2022-10-20T03:41:41;77489.69;;;-142.75;100.00
41632;BME280;37452;51.938;4.624;2022-10-20T03:44:06;77466.03;;;-142.75;100.00
41632;BME280;37452;51.938;4.624;2022-10-20T03:46:31;77464.09;;;-142.75;100.00
41632;BME280;37452;51.938;4.624;2022-10-20T03:48:57;77464.09;;;-142.75;100.00
41632;BME280;37452;51.938;4.624;2022-10-20T03:51:22;77460.13;;;-142.75;100.00
41632;BME280;37452;51.938;4.624;2022-10-20T03:53:47;77456.22;;;-142.75;100.00
41632;BME280;37452;51.938;4.624;2022-10-20T03:56:14;77460.13;;;-142.75;100.00
41632;BME280;37452;51.938;4.624;2022-10-20T03:58:40;77464.09;;;-142.75;100.00
41632;BME280;37452;51.938;4.624;2022-10-20T04:01:06;77462.13;;;-142.75;100.00
41632;BME280;37452;51.938;4.624;2022-10-20T04:03:33;77460.13;;;-142.75;100.00
41632;BME280;37452;51.938;4.624;2022-10-20T04:05:58;77444.38;;;-142.75;100.00
41632;BME280;37452;51.938;4.624;2022-10-20T04:08:23;77430.59;;;-142.75;100.00
41632;BME280;37452;51.938;4.624;2022-10-20T04:10:48;77428.63;;;-142.75;100.00
41632;BME280;37452;51.938;4.624;2022-10-20T04:13:14;77426.66;;;-142.75;100.00
41632;BME280;37452;51.938;4.624;2022-10-20T04:15:39;77410.91;;;-142.75;100.00
41632;BME280;37452;51.938;4.624;2022-10-20T04:18:04;77401.06;;;-142.75;100.00
41632;BME280;37452;51.938;4.624;2022-10-20T04:20:29;77399.09;;;-142.75;100.00
41632;BME280;37452;51.938;4.624;2022-10-20T04:22:54;77405.00;;;-142.75;100.00
41632;BME280;37452;51.938;4.624;2022-10-20T04:25:20;77393.19;;;-142.75;100.00
41632;BME280;37452;51.938;4.624;2022-10-20T04:27:45;77385.31;;;-142.75;100.00
41632;BME280;37452;51.938;4.624;2022-10-20T04:30:10;77379.41;;;-142.75;100.00
41632;BME280;37452;51.938;4.624;2022-10-20T04:32:35;77377.44;;;-142.75;100.00
41632;BME280;37452;51.938;4.624;2022-10-20T04:35:01;77373.50;;;-142.75;100.00
41632;BME280;37452;51.938;4.624;2022-10-20T04:37:26;77373.50;;;-142.75;100.00
41632;BME280;37452;51.938;4.624;2022-10-20T04:39:51;77373.50;;;-142.75;100.00
41632;BME280;37452;51.938;4.624;2022-10-20T04:42:17;77361.69;;;-142.75;100.00
41632;BME280;37452;51.938;4.624;2022-10-20T04:44:42;77373.50;;;-142.75;100.00
41632;BME280;37452;51.938;4.624;2022-10-20T04:47:08;77371.53;;;-142.75;100.00
41632;BME280;37452;51.938;4.624;2022-10-20T04:49:33;77371.53;;;-142.75;100.00
41632;BME280;37452;51.938;4.624;2022-10-20T04:51:58;77373.50;;;-142.75;100.00
41632;BME280;37452;51.938;4.624;2022-10-20T04:54:23;77375.47;;;-142.75;100.00
41632;BME280;37452;51.938;4.624;2022-10-20T04:56:48;77363.66;;;-142.75;100.00
41632;BME280;37452;51.938;4.624;2022-10-20T04:59:14;77355.78;;;-142.75;100.00
41632;BME280;37452;51.938;4.624;2022-10-20T05:01:39;77347.91;;;-142.75;100.00
41632;BME280;37452;51.938;4.624;2022-10-20T05:04:04;77342.00;;;-142.75;100.00
41632;BME280;37452;51.938;4.624;2022-10-20T05:06:30;77322.31;;;-142.75;100.00
41632;BME280;37452;51.938;4.624;2022-10-20T05:08:56;77310.50;;;-142.75;100.00
41632;BME280;37452;51.938;4.624;2022-10-20T05:11:23;77320.34;;;-142.75;100.00
41632;BME280;37452;51.938;4.624;2022-10-20T05:13:49;77320.34;;;-142.75;100.00
41632;BME280;37452;51.938;4.624;2022-10-20T05:16:15;77326.25;;;-142.75;100.00
41632;BME280;37452;51.938;4.624;2022-10-20T05:18:41;77320.34;;;-142.75;100.00
41632;BME280;37452;51.938;4.624;2022-10-20T05:21:08;77316.41;;;-142.75;100.00
41632;BME280;37452;51.938;4.624;2022-10-20T05:23:34;77308.53;;;-142.75;100.00
41632;BME280;37452;51.938;4.624;2022-10-20T05:26:06;77312.47;;;-142.75;100.00
41632;BME280;37452;51.938;4.624;2022-10-20T05:28:31;77300.66;;;-142.75;100.00
41632;BME280;37452;51.938;4.624;2022-10-20T05:31:04;77304.59;;;-142.75;100.00
41632;BME280;37452;51.938;4.624;2022-10-20T05:33:29;77298.69;;;-142.75;100.00
41632;BME280;37452;51.938;4.624;2022-10-20T05:35:55;77290.81;;;-142.75;100.00
41632;BME280;37452;51.938;4.624;2022-10-20T05:38:20;77288.84;;;-142.75;100.00
41632;BME280;37452;51.938;4.624;2022-10-20T05:40:45;77290.81;;;-142.75;100.00
41632;BME280;37452;51.938;4.624;2022-10-20T05:43:10;77286.88;;;-142.75;100.00
41632;BME280;37452;51.938;4.624;2022-10-20T05:45:35;77296.72;;;-142.75;100.00
41632;BME280;37452;51.938;4.624;2022-10-20T05:48:01;77296.72;;;-142.75;100.00
41632;BME280;37452;51.938;4.624;2022-10-20T05:50:26;77290.81;;;-142.75;100.00
41632;BME280;37452;51.938;4.624;2022-10-20T05:52:51;77300.66;;;-142.75;100.00
41632;BME280;37452;51.938;4.624;2022-10-20T05:55:16;77292.78;;;-142.75;100.00
41632;BME280;37452;51.938;4.624;2022-10-20T05:57:42;77294.75;;;-142.75;100.00
41632;BME280;37452;51.938;4.624;2022-10-20T06:00:07;77298.69;;;-142.75;100.00
41632;BME280;37452;51.938;4.624;2022-10-20T06:02:33;77294.75;;;-142.75;100.00
41632;BME280;37452;51.938;4.624;2022-10-20T06:04:58;77292.78;;;-142.75;100.00
41632;BME280;37452;51.938;4.624;2022-10-20T06:07:23;77290.81;;;-142.75;100.00
41632;BME280;37452;51.938;4.624;2022-10-20T06:09:48;77298.69;;;-142.75;100.00
41632;BME280;37452;51.938;4.624;2022-10-20T06:12:14;77290.81;;;-142.75;100.00
41632;BME280;37452;51.938;4.624;2022-10-20T06:14:39;77282.94;;;-142.75;100.00
41632;BME280;37452;51.938;4.624;2022-10-20T06:17:04;77275.06;;;-142.75;100.00
41632;BME280;37452;51.938;4.624;2022-10-20T06:19:29;77267.19;;;-142.75;100.00
41632;BME280;37452;51.938;4.624;2022-10-20T06:21:54;77261.28;;;-142.75;100.00
41632;BME280;37452;51.938;4.624;2022-10-20T06:24:20;77269.16;;;-142.75;100.00
41632;BME280;37452;51.938;4.624;2022-10-20T06:26:45;77267.19;;;-142.75;100.00
41632;BME280;37452;51.938;4.624;2022-10-20T06:29:11;77253.41;;;-142.75;100.00
41632;BME280;37452;51.938;4.624;2022-10-20T06:31:38;77261.28;;;-142.75;100.00
41632;BME280;37452;51.938;4.624;2022-10-20T06:34:04;77279.00;;;-142.75;100.00
41632;BME280;37452;51.938;4.624;2022-10-20T06:36:30;77288.84;;;-142.75;100.00
41632;BME280;37452;51.938;4.624;2022-10-20T06:38:57;77286.88;;;-142.75;100.00
41632;BME280;37452;51.938;4.624;2022-10-20T06:41:23;77265.22;;;-142.75;100.00
41632;BME280;37452;51.938;4.624;2022-10-20T06:43:49;77267.19;;;-142.75;100.00
41632;BME280;37452;51.938;4.624;2022-10-20T06:46:15;77259.31;;;-142.75;100.00
41632;BME280;37452;51.938;4.624;2022-10-20T06:48:40;77255.38;;;-142.75;100.00
41632;BME280;37452;51.938;4.624;2022-10-20T06:51:07;77245.53;;;-142.75;100.00
41632;BME280;37452;51.938;4.624;2022-10-20T06:53:34;77239.63;;;-142.75;100.00
41632;BME280;37452;51.938;4.624;2022-10-20T06:56:01;77235.69;;;-142.75;100.00
41632;BME280;37452;51.938;4.624;2022-10-20T06:58:27;77239.63;;;-142.75;100.00
41632;BME280;37452;51.938;4.624;2022-10-20T07:00:59;77229.78;;;-142.75;100.00
41632;BME280;37452;51.938;4.624;2022-10-20T07:03:25;77223.88;;;-142.75;100.00
41632;BME280;37452;51.938;4.624;2022-10-20T07:05:50;77216.00;;;-142.75;100.00
41632;BME280;37452;51.938;4.624;2022-10-20T07:08:15;77216.00;;;-142.75;100.00
41632;BME280;37452;51.938;4.624;2022-10-20T07:10:40;77216.00;;;-142.75;100.00
41632;BME280;37452;51.938;4.624;2022-10-20T07:13:06;77212.06;;;-142.75;100.00
41632;BME280;37452;51.938;4.624;2022-10-20T07:15:31;77208.13;;;-142.75;100.00
41632;BME280;37452;51.938;4.624;2022-10-20T07:17:56;77204.19;;;-142.75;100.00
41632;BME280;37452;51.938;4.624;2022-10-20T07:20:21;77196.31;;;-142.75;100.00
41632;BME280;37452;51.938;4.624;2022-10-20T07:22:46;77196.31;;;-142.75;100.00
41632;BME280;37452;51.938;4.624;2022-10-20T07:25:11;77200.25;;;-142.75;100.00
41632;BME280;37452;51.938;4.624;2022-10-20T07:27:37;77192.38;;;-142.75;100.00
41632;BME280;37452;51.938;4.624;2022-10-20T07:30:02;77180.56;;;-142.75;100.00
41632;BME280;37452;51.938;4.624;2022-10-20T07:32:28;77182.53;;;-142.75;100.00
41632;BME280;37452;51.938;4.624;2022-10-20T07:34:54;77172.69;;;-142.75;100.00
41632;BME280;37452;51.938;4.624;2022-10-20T07:37:19;77164.81;;;-142.75;100.00
41632;BME280;37452;51.938;4.624;2022-10-20T07:39:44;77166.78;;;-142.75;100.00
41632;BME280;37452;51.938;4.624;2022-10-20T07:42:10;77164.81;;;-142.75;100.00
41632;BME280;37452;51.938;4.624;2022-10-20T07:44:35;77154.97;;;-142.75;100.00
41632;BME280;37452;51.938;4.624;2022-10-20T07:47:00;77158.91;;;-142.75;100.00
41632;BME280;37452;51.938;4.624;2022-10-20T07:49:25;77158.91;;;-142.75;100.00
41632;BME280;37452;51.938;4.624;2022-10-20T07:51:50;77160.88;;;-142.75;100.00
41632;BME280;37452;51.938;4.624;2022-10-20T07:54:16;77147.09;;;-142.75;100.00
41632;BME280;37452;51.938;4.624;2022-10-20T07:56:41;77149.06;;;-142.75;100.00
41632;BME280;37452;51.938;4.624;2022-10-20T07:59:07;77147.09;;;-142.75;100.00
41632;BME280;37452;51.938;4.624;2022-10-20T08:01:33;77143.16;;;-142.75;100.00
41632;BME280;37452;51.938;4.624;2022-10-20T08:03:58;77137.25;;;-142.75;100.00
41632;BME280;37452;51.938;4.624;2022-10-20T08:06:24;77125.44;;;-142.75;100.00
41632;BME280;37452;51.938;4.624;2022-10-20T08:08:49;77119.53;;;-142.75;100.00
41632;BME280;37452;51.938;4.624;2022-10-20T08:11:15;77111.66;;;-142.75;100.00
41632;BME280;37452;51.938;4.624;2022-10-20T08:13:40;77123.47;;;-142.75;100.00
41632;BME280;37452;51.938;4.624;2022-10-20T08:16:07;77115.59;;;-142.75;100.00
41632;BME280;37452;51.938;4.624;2022-10-20T08:18:32;77105.75;;;-142.75;100.00
41632;BME280;37452;51.938;4.624;2022-10-20T08:21:14;77113.63;;;-142.75;100.00
41632;BME280;37452;51.938;4.624;2022-10-20T08:23:41;77101.81;;;-142.75;100.00
41632;BME280;37452;51.938;4.624;2022-10-20T08:26:07;77091.97;;;-142.75;100.00
41632;BME280;37452;51.938;4.624;2022-10-20T08:28:32;77091.97;;;-142.75;100.00
41632;BME280;37452;51.938;4.624;2022-10-20T08:30:59;77090.00;;;-142.75;100.00
41632;BME280;37452;51.938;4.624;2022-10-20T08:33:24;77080.16;;;-142.75;100.00
41632;BME280;37452;51.938;4.624;2022-10-20T08:35:50;77074.25;;;-142.75;100.00
41632;BME280;37452;51.938;4.624;2022-10-20T08:38:15;77066.38;;;-142.75;100.00
41632;BME280;37452;51.938;4.624;2022-10-20T08:40:40;77056.53;;;-142.75;100.00
41632;BME280;37452;51.938;4.624;2022-10-20T08:43:09;77056.53;;;-142.75;100.00
41632;BME280;37452;51.938;4.624;2022-10-20T08:45:35;77060.47;;;-142.75;100.00
41632;BME280;37452;51.938;4.624;2022-10-20T08:48:00;77046.69;;;-142.75;100.00
41632;BME280;37452;51.938;4.624;2022-10-20T08:50:26;77034.88;;;-142.75;100.00
41632;BME280;37452;51.938;4.624;2022-10-20T08:52:56;77034.88;;;-142.75;100.00
41632;BME280;37452;51.938;4.624;2022-10-20T08:55:29;77023.06;;;-142.75;100.00
41632;BME280;37452;51.938;4.624;2022-10-20T08:57:57;77013.22;;;-142.75;100.00
41632;BME280;37452;51.938;4.624;2022-10-20T09:00:23;77001.41;;;-142.75;100.00
41632;BME280;37452;51.938;4.624;2022-10-20T09:02:49;76999.44;;;-142.75;100.00
41632;BME280;37452;51.938;4.624;2022-10-20T09:05:16;76983.69;;;-142.75;100.00
41632;BME280;37452;51.938;4.624;2022-10-20T09:07:43;76967.94;;;-142.75;100.00
41632;BME280;37452;51.938;4.624;2022-10-20T09:12:40;76958.09;;;-142.75;100.00
41632;BME280;37452;51.938;4.624;2022-10-20T09:15:08;76940.38;;;-142.75;100.00
41632;BME280;37452;51.938;4.624;2022-10-20T09:17:34;76936.44;;;-142.75;100.00
41632;BME280;37452;51.938;4.624;2022-10-20T09:19:59;76920.69;;;-142.75;100.00
41632;BME280;37452;51.938;4.624;2022-10-20T09:22:26;76899.03;;;-142.75;100.00
41632;BME280;37452;51.938;4.624;2022-10-20T09:24:54;76904.94;;;-142.75;100.00
41632;BME280;37452;51.938;4.624;2022-10-20T09:27:31;76885.25;;;-142.75;100.00
41632;BME280;37452;51.938;4.624;2022-10-20T09:30:04;76881.31;;;-142.75;100.00
41632;BME280;37452;51.938;4.624;2022-10-20T09:32:36;76879.34;;;-142.75;100.00
41632;BME280;37452;51.938;4.624;2022-10-20T09:36:02;76875.41;;;-142.75;100.00
41632;BME280;37452;51.938;4.624;2022-10-20T09:40:21;76869.50;;;-142.75;100.00
41632;BME280;37452;51.938;4.624;2022-10-20T09:43:00;76857.69;;;-142.75;100.00
41632;BME280;37452;51.938;4.624;2022-10-20T09:45:27;76849.81;;;-142.75;100.00
41632;BME280;37452;51.938;4.624;2022-10-20T09:47:55;76845.88;;;-142.75;100.00
41632;BME280;37452;51.938;4.624;2022-10-20T09:50:25;76824.22;;;-142.75;100.00
41632;BME280;37452;51.938;4.624;2022-10-20T09:52:51;76814.38;;;-142.75;100.00
41632;BME280;37452;51.938;4.624;2022-10-20T09:55:31;76818.31;;;-142.75;100.00
41632;BME280;37452;51.938;4.624;2022-10-20T09:57:59;76794.69;;;-142.75;100.00
41632;BME280;37452;51.938;4.624;2022-10-20T10:00:40;76794.69;;;-142.75;100.00
41632;BME280;37452;51.938;4.624;2022-10-20T10:05:46;76790.78;;;-142.75;100.00
41632;BME280;37452;51.938;4.624;2022-10-20T10:08:12;76782.91;;;-142.75;100.00
41632;BME280;37452;51.938;4.624;2022-10-20T10:10:39;76755.34;;;-142.75;100.00
41632;BME280;37452;51.938;4.624;2022-10-20T10:13:04;76735.66;;;-142.75;100.00
41632;BME280;37452;51.938;4.624;2022-10-20T10:15:30;76727.78;;;-142.75;100.00
41632;BME280;37452;51.938;4.624;2022-10-20T10:17:57;76712.03;;;-142.75;100.00
41632;BME280;37452;51.938;4.624;2022-10-20T10:23:08;76717.94;;;-142.75;100.00
41632;BME280;37452;51.938;4.624;2022-10-20T10:25:40;76704.16;;;-142.75;100.00
41632;BME280;37452;51.938;4.624;2022-10-20T10:28:17;76690.38;;;-142.75;100.00
41632;BME280;37452;51.938;4.624;2022-10-20T10:30:43;76678.56;;;-142.75;100.00
41632;BME280;37452;51.938;4.624;2022-10-20T10:33:17;76674.63;;;-142.75;100.00
41632;BME280;37452;51.938;4.624;2022-10-20T10:35:47;76676.59;;;-142.75;100.00
41632;BME280;37452;51.938;4.624;2022-10-20T10:38:13;76672.66;;;-142.75;100.00
41632;BME280;37452;51.938;4.624;2022-10-20T10:40:50;76676.59;;;-142.75;100.00
41632;BME280;37452;51.938;4.624;2022-10-20T10:46:06;76664.78;;;-142.75;100.00
41632;BME280;37452;51.938;4.624;2022-10-20T10:48:45;76678.56;;;-142.75;100.00
41632;BME280;37452;51.938;4.624;2022-10-20T10:56:42;76651.00;;;-142.75;100.00
41632;BME280;37452;51.938;4.624;2022-10-20T11:04:12;76641.16;;;-142.75;100.00
41632;BME280;37452;51.938;4.624;2022-10-20T11:09:21;76629.34;;;-142.75;100.00
41632;BME280;37452;51.938;4.624;2022-10-20T11:11:51;76627.38;;;-142.75;100.00
41632;BME280;37452;51.938;4.624;2022-10-20T11:16:54;76621.47;;;-142.75;100.00
41632;BME280;37452;51.938;4.624;2022-10-20T11:19:28;76605.72;;;-142.75;100.00
41632;BME280;37452;51.938;4.624;2022-10-20T11:22:14;76574.22;;;-142.75;100.00
41632;BME280;37452;51.938;4.624;2022-10-20T11:24:46;76582.09;;;-142.75;100.00
41632;BME280;37452;51.938;4.624;2022-10-20T11:27:17;76562.41;;;-142.75;100.00
41632;BME280;37452;51.938;4.624;2022-10-20T11:29:45;76570.28;;;-142.75;100.00
41632;BME280;37452;51.938;4.624;2022-10-20T11:32:32;76562.41;;;-142.75;100.00
41632;BME280;37452;51.938;4.624;2022-10-20T11:35:00;76554.53;;;-142.75;100.00
41632;BME280;37452;51.938;4.624;2022-10-20T11:37:28;76570.28;;;-142.75;100.00
41632;BME280;37452;51.938;4.624;2022-10-20T11:39:56;76562.41;;;-142.75;100.00
41632;BME280;37452;51.938;4.624;2022-10-20T11:42:27;76578.16;;;-142.75;100.00
41632;BME280;37452;51.938;4.624;2022-10-20T11:44:55;76586.03;;;-142.75;100.00
41632;BME280;37452;51.938;4.624;2022-10-20T11:47:37;76584.06;;;-142.75;100.00
41632;BME280;37452;51.938;4.624;2022-10-20T11:50:04;76580.13;;;-142.75;100.00
41632;BME280;37452;51.938;4.624;2022-10-20T12:08:44;76540.75;;;-142.75;100.00
41632;BME280;37452;51.938;4.624;2022-10-20T12:16:55;76534.84;;;-142.75;100.00
41632;BME280;37452;51.938;4.624;2022-10-20T12:19:12;76546.66;;;-142.75;100.00
41632;BME280;37452;51.938;4.624;2022-10-20T12:21:55;76542.72;;;-142.75;100.00
41632;BME280;37452;51.938;4.624;2022-10-20T12:27:17;76540.75;;;-142.75;100.00
41632;BME280;37452;51.938;4.624;2022-10-20T12:34:48;76530.91;;;-142.75;100.00
41632;BME280;37452;51.938;4.624;2022-10-20T12:39:48;76527.00;;;-142.75;100.00
41632;BME280;37452;51.938;4.624;2022-10-20T12:42:29;76513.22;;;-142.75;100.00
41632;BME280;37452;51.938;4.624;2022-10-20T12:44:57;76511.25;;;-142.75;100.00
41632;BME280;37452;51.938;4.624;2022-10-20T12:47:26;76499.44;;;-142.75;100.00
41632;BME280;37452;51.938;4.624;2022-10-20T12:50:08;76491.56;;;-142.75;100.00
41632;BME280;37452;51.938;4.624;2022-10-20T12:52:43;76489.59;;;-142.75;100.00
41632;BME280;37452;51.938;4.624;2022-10-20T12:55:20;76475.81;;;-142.75;100.00
41632;BME280;37452;51.938;4.624;2022-10-20T12:57:49;76479.75;;;-142.75;100.00
41632;BME280;37452;51.938;4.624;2022-10-20T13:02:57;76467.94;;;-142.75;100.00
41632;BME280;37452;51.938;4.624;2022-10-20T13:12:50;76406.91;;;-142.75;100.00
41632;BME280;37452;51.938;4.624;2022-10-20T13:15:16;76371.47;;;-142.75;100.00
41632;BME280;37452;51.938;4.624;2022-10-20T13:17:52;76351.81;;;-142.75;100.00
41632;BME280;37452;51.938;4.624;2022-10-20T13:22:53;76330.16;;;-142.75;100.00
41632;BME280;37452;51.938;4.624;2022-10-20T13:25:36;76304.56;;;-142.75;100.00
41632;BME280;37452;51.938;4.624;2022-10-20T13:28:04;76296.69;;;-142.75;100.00
41632;BME280;37452;51.938;4.624;2022-10-20T13:30:30;76284.88;;;-142.75;100.00
41632;BME280;37452;51.938;4.624;2022-10-20T13:33:05;76269.13;;;-142.75;100.00
41632;BME280;37452;51.938;4.624;2022-10-20T13:35:34;76259.28;;;-142.75;100.00
41632;BME280;37452;51.938;4.624;2022-10-20T13:38:09;76243.53;;;-142.75;100.00
41632;BME280;37452;51.938;4.624;2022-10-20T13:43:22;76223.84;;;-142.75;100.00
41632;BME280;37452;51.938;4.624;2022-10-20T13:50:48;76210.06;;;-142.75;100.00
41632;BME280;37452;51.938;4.624;2022-10-20T13:53:30;76184.50;;;-142.75;100.00
41632;BME280;37452;51.938;4.624;2022-10-20T13:58:22;76160.88;;;-142.75;100.00
41632;BME280;37452;51.938;4.624;2022-10-20T14:01:21;76156.94;;;-142.75;100.00
41632;BME280;37452;51.938;4.624;2022-10-20T14:03:44;76156.94;;;-142.75;100.00
41632;BME280;37452;51.938;4.624;2022-10-20T14:08:54;76141.19;;;-142.75;100.00
41632;BME280;37452;51.938;4.624;2022-10-20T14:11:20;76133.31;;;-142.75;100.00
41632;BME280;37452;51.938;4.624;2022-10-20T14:13:46;76129.38;;;-142.75;100.00
41632;BME280;37452;51.938;4.624;2022-10-20T14:16:15;76113.63;;;-142.75;100.00
41632;BME280;37452;51.938;4.624;2022-10-20T14:18:42;76109.69;;;-142.75;100.00
41632;BME280;37452;51.938;4.624;2022-10-20T14:21:17;76113.63;;;-142.75;100.00